Valenca, Brazil
Current Conditions -  °F | °C
As of 11:00 AM on Thursday 18 Dec 2014 (Local Time) from SBSV Reporting Station
Light Rain Light Rain  
Wind Chill: 75°   Ceiling: 1000
Heat Index: 75°   Visibility: 3mi
Dew Point: 72°   Wind: 7mph
Humidity: 89%   Direction: 50°NE
Pressure: 29.94"   Gusts: NA
Location:  13.37°S, 39.07°W
Report Text: SBSV 181400Z 05006KT 5000 -RA BR BKN010 FEW020TCU OVC070 24/22 Q1014
Loading
Personal Weather Stations






























Interactive Weather Map New forecast layout! Learn more

10-Day Weather Forecast

Advertisements
Track Severe Weather on mobile